Bellaire, Arkansas
Current Conditions -  °F | °C
As of 2:53 PM on Friday 19 Dec 2014 (Local Time) from KLLQ Reporting Station
Light Rain Light Rain  
Wind Chill: 42°   Ceiling: 9000
Heat Index: 46°   Visibility: 8mi
Dew Point: 43°   Wind: 7mph
Humidity: 89%   Direction: NA
Pressure: 30.15"   Gusts: NA
Location:  33.4898°N, 91.4556°W
Report Text: KLLQ 192053Z AUTO VRB06KT 8SM -RA OVC090 08/06 A3015 RMK AO2 SLP208 P0000 60003 T00780061 56029
Loading
Personal Weather Stations






























Interactive Weather Map New forecast layout! Learn more

10-Day Weather Forecast

Advertisements
Track Severe Weather on mobile